Time;durP1;ratioP1;P1;durP2;ratioP2;P2;SDS_P1;SDS_P2;PMS_P1;PMS_P2;Temp;Humidity;BMP_temperature;BMP_pressure;BME280_temperature;BME280_humidity;BME280_pressure;Samples;Min_cycle;Max_cycle;Signal;HPM_P1;HPM_P2
2022/12/27 00:02:28;;;;;;;10.88;4.72;;;;;;;2.30;100.00;102160.88;5304276;28;20048;-84
2022/12/27 00:05:00;;;;;;;17.00;4.55;;;;;;;2.29;100.00;102161.78;5304053;28;20050;-84
2022/12/27 00:07:35;;;;;;;9.27;4.25;;;;;;;2.35;100.00;102164.19;5308719;28;20017;-84
2022/12/27 00:10:08;;;;;;;13.57;4.15;;;;;;;2.28;100.00;102167.97;5312634;28;20031;-84
2022/12/27 00:12:39;;;;;;;11.70;4.60;;;;;;;2.24;100.00;102175.13;5304643;28;20024;-85
2022/12/27 00:15:11;;;;;;;12.13;4.30;;;;;;;2.30;100.00;102165.25;5307177;28;20044;-84
2022/12/27 00:17:42;;;;;;;11.73;4.20;;;;;;;2.37;100.00;102174.69;5308571;28;20119;-84
2022/12/27 00:20:13;;;;;;;12.13;5.15;;;;;;;2.43;100.00;102179.72;5314846;27;20040;-85
2022/12/27 00:22:45;;;;;;;11.90;4.65;;;;;;;2.46;100.00;102171.69;5308844;28;20024;-83
2022/12/27 00:25:16;;;;;;;13.48;4.88;;;;;;;2.51;100.00;102174.13;5314215;28;20024;-84
2022/12/27 00:27:47;;;;;;;11.32;4.40;;;;;;;2.48;100.00;102164.59;5308864;28;20079;-84
2022/12/27 00:30:19;;;;;;;13.50;4.75;;;;;;;2.43;100.00;102167.38;5306238;28;20037;-84
2022/12/27 00:32:50;;;;;;;13.13;4.45;;;;;;;2.44;100.00;102170.91;5310037;28;20129;-84
2022/12/27 00:35:21;;;;;;;16.38;5.07;;;;;;;2.43;100.00;102175.28;5307738;27;20028;-85
2022/12/27 00:37:52;;;;;;;7.75;4.40;;;;;;;2.45;100.00;102180.50;5312924;28;20032;-84
2022/12/27 00:40:24;;;;;;;9.40;4.13;;;;;;;2.39;100.00;102170.22;5305599;28;20044;-84
2022/12/27 00:42:55;;;;;;;11.45;4.43;;;;;;;2.40;100.00;102169.28;5313606;28;20054;-84
2022/12/27 00:45:26;;;;;;;12.73;3.90;;;;;;;2.36;100.00;102179.06;5313171;28;20024;-84
2022/12/27 00:47:58;;;;;;;12.88;4.43;;;;;;;2.38;100.00;102186.91;5300723;28;20037;-84
2022/12/27 00:50:29;;;;;;;15.07;5.15;;;;;;;2.44;100.00;102168.28;5285962;28;20568;-84
2022/12/27 00:53:00;;;;;;;9.13;4.45;;;;;;;2.52;100.00;102189.03;5304623;28;20123;-84
2022/12/27 00:55:32;;;;;;;12.27;4.38;;;;;;;2.46;100.00;102179.59;5300554;28;20036;-84
2022/12/27 00:58:03;;;;;;;12.15;4.28;;;;;;;2.51;100.00;102184.69;5302175;28;20036;-85
2022/12/27 01:00:35;;;;;;;15.57;4.80;;;;;;;2.49;100.00;102190.03;5310027;28;20036;-85
2022/12/27 01:03:06;;;;;;;13.70;4.47;;;;;;;2.46;100.00;102198.03;5305182;28;20032;-84
2022/12/27 01:05:38;;;;;;;7.72;3.83;;;;;;;2.51;100.00;102201.38;5307582;28;20021;-83
2022/12/27 01:08:09;;;;;;;11.18;4.38;;;;;;;2.46;100.00;102212.06;5308109;28;20032;-84
2022/12/27 01:10:40;;;;;;;8.90;4.43;;;;;;;2.44;100.00;102210.41;5303538;28;20048;-84
2022/12/27 01:13:12;;;;;;;10.82;3.80;;;;;;;2.50;100.00;102209.31;5307873;28;20028;-84
2022/12/27 01:15:43;;;;;;;11.70;4.30;;;;;;;2.52;100.00;102213.59;5308640;28;20499;-83
2022/12/27 01:18:14;;;;;;;15.20;4.50;;;;;;;2.48;100.00;102219.91;5310504;28;20036;-84
2022/12/27 01:20:46;;;;;;;13.68;4.53;;;;;;;2.47;100.00;102223.44;5312776;28;20084;-84
2022/12/27 01:23:17;;;;;;;9.57;4.10;;;;;;;2.53;100.00;102225.00;5305788;28;20072;-84
2022/12/27 01:25:48;;;;;;;11.02;4.47;;;;;;;2.44;100.00;102220.94;5307458;28;20037;-83
2022/12/27 01:28:20;;;;;;;14.05;4.80;;;;;;;2.42;100.00;102222.75;5291472;28;20111;-85
2022/12/27 01:30:51;;;;;;;12.55;4.60;;;;;;;2.43;100.00;102222.69;5306910;28;20111;-84
2022/12/27 01:33:22;;;;;;;18.02;5.60;;;;;;;2.46;100.00;102238.41;5307798;28;20032;-84
2022/12/27 01:35:54;;;;;;;15.68;4.65;;;;;;;2.45;100.00;102228.78;5307173;28;20123;-84
2022/12/27 01:38:25;;;;;;;14.10;4.22;;;;;;;2.39;100.00;102229.00;5309280;28;20364;-85
2022/12/27 01:40:56;;;;;;;14.70;4.88;;;;;;;2.40;100.00;102232.47;5302944;28;20104;-84
2022/12/27 01:43:37;;;;;;;10.35;4.40;;;;;;;2.44;100.00;102231.47;5306293;28;20048;-84
2022/12/27 01:46:08;;;;;;;16.75;4.32;;;;;;;2.47;100.00;102228.72;5312696;28;20029;-84
2022/12/27 01:48:40;;;;;;;10.20;3.70;;;;;;;2.47;100.00;102231.34;5306139;28;20473;-84
2022/12/27 01:51:12;;;;;;;13.30;4.47;;;;;;;2.43;100.00;102237.66;5299191;28;20037;-84
2022/12/27 01:53:47;;;;;;;15.95;5.28;;;;;;;2.50;100.00;102247.03;5309445;28;20035;-84
2022/12/27 01:56:29;;;;;;;9.68;4.47;;;;;;;2.49;100.00;102250.59;5306459;28;20063;-83
2022/12/27 01:59:07;;;;;;;9.02;4.22;;;;;;;2.49;100.00;102247.97;5309180;28;20060;-85
2022/12/27 02:01:42;;;;;;;10.55;4.20;;;;;;;2.49;100.00;102252.38;5309754;27;20102;-84
2022/12/27 02:04:17;;;;;;;11.03;3.83;;;;;;;2.51;100.00;102267.22;5303017;28;20060;-84
2022/12/27 02:06:50;;;;;;;15.80;4.55;;;;;;;2.55;100.00;102265.31;5315894;28;20021;-84
2022/12/27 02:09:35;;;;;;;13.88;4.72;;;;;;;2.58;100.00;102262.59;5294115;28;20033;-85
2022/12/27 02:12:08;;;;;;;13.30;4.47;;;;;;;2.55;100.00;102258.28;5320848;28;20040;-84
2022/12/27 02:14:45;;;;;;;12.00;3.90;;;;;;;2.55;100.00;102268.81;5315173;28;20059;-85
2022/12/27 02:17:20;;;;;;;9.80;4.05;;;;;;;2.54;100.00;102267.09;5331122;28;20032;-84
2022/12/27 02:20:14;;;;;;;13.48;4.82;;;;;;;2.55;100.00;102266.19;5320703;28;20037;-83
2022/12/27 02:26:16;;;;;;;12.70;4.28;;;;;;;2.57;100.00;102266.97;5319454;28;20029;-84
2022/12/27 02:29:09;;;;;;;12.10;4.78;;;;;;;2.63;100.00;102271.19;5316421;28;20027;-84
2022/12/27 02:32:01;;;;;;;11.45;4.80;;;;;;;2.71;100.00;102276.16;5317421;27;20037;-84
2022/12/27 02:35:13;;;;;;;11.63;4.63;;;;;;;2.71;100.00;102276.16;5309988;28;20076;-84
2022/12/27 02:38:13;;;;;;;10.55;4.03;;;;;;;2.71;100.00;102281.44;5298402;28;20036;-85
2022/12/27 02:57:07;;;;;;;11.68;3.72;;;;;;;2.69;100.00;102284.13;5318827;28;20429;-84
2022/12/27 02:59:11;;;;;;;14.93;4.22;;;;;;;2.72;100.00;102273.47;5324823;28;20078;-84
2022/12/27 03:05:26;;;;;;;13.30;4.28;;;;;;;2.90;100.00;102265.78;5295865;28;20028;-83
2022/12/27 03:08:09;;;;;;;16.20;3.65;;;;;;;2.91;100.00;102270.13;5306931;28;20024;-84
2022/12/27 03:15:53;;;;;;;13.63;3.83;;;;;;;2.96;100.00;102265.53;5304797;28;20033;-84
2022/12/27 03:17:35;;;;;;;13.43;3.50;;;;;;;2.94;100.00;102267.38;5305382;28;20052;-83
2022/12/27 03:25:56;;;;;;;17.05;3.70;;;;;;;2.92;100.00;102279.78;5305929;27;20036;-84
2022/12/27 03:34:30;;;;;;;7.45;3.90;;;;;;;2.95;100.00;102301.59;5309864;28;20028;-84
2022/12/27 03:40:21;;;;;;;16.08;3.70;;;;;;;2.89;100.00;102301.81;5313514;28;20036;-84
2022/12/27 03:43:12;;;;;;;11.95;3.50;;;;;;;2.88;100.00;102318.56;5306218;28;20680;-84
2022/12/27 03:46:34;;;;;;;12.88;3.58;;;;;;;2.84;100.00;102302.00;5308390;28;20020;-85
2022/12/27 03:49:29;;;;;;;14.98;3.88;;;;;;;2.79;100.00;102306.59;5252090;28;20387;-84
2022/12/27 03:52:26;;;;;;;13.40;3.25;;;;;;;2.79;100.00;102308.38;5302764;28;20045;-84
2022/12/27 03:54:59;;;;;;;13.65;3.92;;;;;;;2.83;100.00;102309.97;5305591;28;20035;-85
2022/12/27 03:57:31;;;;;;;11.95;3.67;;;;;;;2.77;100.00;102315.44;5307794;28;20074;-85
2022/12/27 04:00:04;;;;;;;15.07;3.40;;;;;;;2.78;100.00;102325.09;5314747;28;20424;-84
2022/12/27 04:02:35;;;;;;;14.10;4.00;;;;;;;2.74;100.00;102319.06;5311728;28;20024;-84
2022/12/27 04:05:07;;;;;;;11.88;3.70;;;;;;;2.64;100.00;102321.16;5309352;28;20078;-84
2022/12/27 04:07:38;;;;;;;14.07;3.40;;;;;;;2.59;100.00;102323.09;5285396;28;20025;-85
2022/12/27 04:35:42;;;;;;;13.52;3.22;;;;;;;2.52;100.00;102318.97;5308082;28;20041;-84
2022/12/27 04:38:13;;;;;;;14.00;3.50;;;;;;;2.54;100.00;102318.91;5306877;28;20491;-84
2022/12/27 04:55:09;;;;;;;13.38;3.72;;;;;;;2.43;100.00;102338.59;5327717;28;20036;-83
2022/12/27 04:57:41;;;;;;;17.25;3.47;;;;;;;2.39;100.00;102338.75;5315263;28;20036;-84
2022/12/27 05:03:08;;;;;;;11.13;4.47;;;;;;;2.29;100.00;102335.56;5309867;28;20056;-84
2022/12/27 05:05:42;;;;;;;10.00;3.38;;;;;;;2.24;100.00;102348.91;5310442;28;20899;-84
2022/12/27 05:14:00;;;;;;;22.60;4.22;;;;;;;2.12;100.00;102346.66;5300247;28;20044;-84
2022/12/27 05:16:40;;;;;;;20.83;4.35;;;;;;;2.15;100.00;102348.34;5307678;28;20071;-84
2022/12/27 05:19:13;;;;;;;17.77;4.40;;;;;;;2.24;100.00;102346.28;5305524;28;20059;-84
2022/12/27 05:25:33;;;;;;;14.48;4.38;;;;;;;2.32;100.00;102351.28;5304256;28;20060;-84
2022/12/27 05:27:26;;;;;;;19.20;5.00;;;;;;;2.59;100.00;102367.88;5296871;28;20040;-84
2022/12/27 05:29:57;;;;;;;10.98;4.18;;;;;;;2.60;100.00;102368.75;5295522;28;20032;-84
2022/12/27 05:32:28;;;;;;;14.82;4.47;;;;;;;2.63;100.00;102363.41;5300598;28;20485;-84
2022/12/27 05:34:59;;;;;;;16.95;4.45;;;;;;;2.61;100.00;102381.00;5301211;28;20074;-84
2022/12/27 05:37:31;;;;;;;15.25;4.28;;;;;;;2.57;100.00;102380.25;5298730;28;20419;-83
2022/12/27 05:40:02;;;;;;;10.65;3.65;;;;;;;2.69;100.00;102384.25;5293709;28;20028;-84
2022/12/27 05:42:34;;;;;;;13.55;4.30;;;;;;;2.71;100.00;102381.56;5302272;28;20029;-84
2022/12/27 05:45:06;;;;;;;11.70;4.00;;;;;;;2.67;100.00;102387.84;5311604;28;20055;-84
2022/12/27 05:47:37;;;;;;;13.13;4.28;;;;;;;2.55;100.00;102391.78;5302563;28;20032;-84
2022/12/27 05:50:09;;;;;;;13.18;4.55;;;;;;;2.54;100.00;102396.19;5302397;28;20538;-84
2022/12/27 05:52:40;;;;;;;16.10;5.10;;;;;;;2.40;100.00;102396.66;5306357;28;20421;-85
2022/12/27 05:55:12;;;;;;;12.70;3.90;;;;;;;2.29;100.00;102403.19;5304447;28;20033;-84
2022/12/27 05:57:43;;;;;;;17.48;4.30;;;;;;;2.10;100.00;102398.50;5304983;28;20024;-84
2022/12/27 06:00:15;;;;;;;14.63;3.35;;;;;;;2.23;100.00;102412.16;5305468;28;20024;-83
2022/12/27 06:02:46;;;;;;;16.58;3.75;;;;;;;2.09;100.00;102423.13;5302044;28;20024;-84
2022/12/27 06:05:17;;;;;;;13.98;3.50;;;;;;;1.98;100.00;102419.94;5304147;28;20025;-84
2022/12/27 06:07:49;;;;;;;15.15;3.55;;;;;;;2.20;100.00;102421.00;5302343;28;20175;-84
2022/12/27 06:10:20;;;;;;;12.95;3.53;;;;;;;2.16;100.00;102413.25;5300248;28;20047;-84
2022/12/27 06:12:52;;;;;;;10.15;4.40;;;;;;;2.28;100.00;102412.84;5308018;28;20021;-84
2022/12/27 06:15:23;;;;;;;12.98;4.25;;;;;;;2.35;100.00;102416.13;5301284;28;20075;-83
2022/12/27 06:17:55;;;;;;;16.88;3.92;;;;;;;2.29;100.00;102411.94;5304699;28;20111;-84
2022/12/27 06:20:26;;;;;;;17.75;3.88;;;;;;;2.23;100.00;102417.41;5287186;28;20032;-84
2022/12/27 06:22:58;;;;;;;11.35;3.35;;;;;;;2.20;100.00;102420.13;5304697;28;20017;-85
2022/12/27 06:25:30;;;;;;;13.25;3.75;;;;;;;2.19;100.00;102414.03;5301390;28;20036;-85
2022/12/27 06:28:01;;;;;;;15.43;4.15;;;;;;;2.14;100.00;102408.03;5300433;28;20024;-84
2022/12/27 06:30:32;;;;;;;13.20;4.47;;;;;;;2.26;100.00;102417.28;5304242;27;20182;-84
2022/12/27 06:33:04;;;;;;;13.40;3.75;;;;;;;2.40;100.00;102414.19;5309159;28;20032;-83
2022/12/27 06:35:35;;;;;;;17.30;4.63;;;;;;;2.38;100.00;102422.16;5309580;28;20028;-83
2022/12/27 06:38:06;;;;;;;12.55;4.72;;;;;;;2.31;100.00;102418.00;5301665;28;20442;-84
2022/12/27 06:40:38;;;;;;;12.48;3.90;;;;;;;2.20;100.00;102421.00;5303096;28;20157;-84
2022/12/27 06:43:09;;;;;;;16.60;4.70;;;;;;;2.25;100.00;102407.69;5300580;28;20020;-84
2022/12/27 06:45:40;;;;;;;16.60;5.53;;;;;;;2.19;100.00;102419.28;5301883;28;20036;-84
2022/12/27 06:48:11;;;;;;;11.48;4.20;;;;;;;2.07;100.00;102410.00;5302258;28;20028;-84
2022/12/27 06:50:43;;;;;;;16.00;4.20;;;;;;;2.10;100.00;102422.19;5299367;28;20090;-84
2022/12/27 06:53:14;;;;;;;21.98;4.82;;;;;;;2.07;100.00;102423.16;5303036;28;20028;-85
2022/12/27 06:55:46;;;;;;;14.75;4.63;;;;;;;2.03;100.00;102420.66;5301525;28;20050;-84
2022/12/27 06:58:17;;;;;;;12.05;4.32;;;;;;;2.16;100.00;102418.53;5298730;28;20470;-84
2022/12/27 07:00:48;;;;;;;11.07;4.05;;;;;;;2.18;100.00;102414.91;5303927;28;20112;-84
2022/12/27 07:03:20;;;;;;;16.83;5.53;;;;;;;2.18;100.00;102414.91;5301766;28;20024;-84
2022/12/27 07:05:51;;;;;;;13.02;4.72;;;;;;;2.12;100.00;102423.00;5301328;28;20035;-85
2022/12/27 07:08:22;;;;;;;17.77;4.68;;;;;;;2.07;100.00;102424.94;5299341;28;30166;-84
2022/12/27 07:11:02;;;;;;;22.60;6.03;;;;;;;2.04;100.00;102422.41;5303810;27;20477;-83
2022/12/27 07:13:41;;;;;;;15.63;5.05;;;;;;;2.00;100.00;102423.38;5300559;28;20558;-84
2022/12/27 07:16:15;;;;;;;20.33;7.93;;;;;;;2.06;100.00;102423.22;5303711;27;20475;-83
2022/12/27 07:18:47;;;;;;;18.75;5.55;;;;;;;2.01;100.00;102433.88;5297741;28;20029;-84
2022/12/27 07:21:21;;;;;;;24.48;7.72;;;;;;;1.95;100.00;102431.44;5324743;28;20042;-83
2022/12/27 07:23:53;;;;;;;14.85;5.90;;;;;;;2.05;100.00;102432.88;5329871;28;20043;-84
2022/12/27 07:26:28;;;;;;;22.25;5.97;;;;;;;2.00;100.00;102433.91;5300904;28;20020;-85
2022/12/27 07:29:00;;;;;;;16.25;6.05;;;;;;;1.90;100.00;102436.00;5315331;28;20469;-84
2022/12/27 07:31:32;;;;;;;17.85;6.13;;;;;;;1.93;100.00;102456.97;5301629;28;20111;-84
2022/12/27 07:34:03;;;;;;;14.82;6.43;;;;;;;1.99;100.00;102438.34;5302361;28;20032;-85
2022/12/27 07:36:37;;;;;;;18.92;6.80;;;;;;;2.02;100.00;102445.28;5303197;28;20492;-83
2022/12/27 07:39:09;;;;;;;14.98;6.78;;;;;;;2.08;100.00;102450.34;5298529;28;20461;-84
2022/12/27 07:41:40;;;;;;;19.00;6.95;;;;;;;2.12;100.00;102457.22;5301442;28;20119;-84
2022/12/27 07:44:12;;;;;;;18.77;7.07;;;;;;;2.14;100.00;102447.53;5305543;28;20047;-84
2022/12/27 07:46:44;;;;;;;16.17;7.32;;;;;;;2.10;100.00;102448.50;5305346;28;20477;-83
2022/12/27 07:49:15;;;;;;;18.13;6.78;;;;;;;2.12;100.00;102454.59;5301121;28;20020;-84
2022/12/27 07:51:47;;;;;;;17.02;7.25;;;;;;;2.10;100.00;102448.50;5301333;28;20050;-84
2022/12/27 07:54:18;;;;;;;18.08;6.47;;;;;;;2.04;100.00;102446.09;5299986;28;20029;-84
2022/12/27 07:56:49;;;;;;;21.20;8.40;;;;;;;2.11;100.00;102458.16;5302125;28;20029;-84
2022/12/27 07:59:21;;;;;;;16.70;6.55;;;;;;;2.26;100.00;102451.53;5299756;28;20038;-83
2022/12/27 08:02:04;;;;;;;20.55;7.50;;;;;;;2.37;100.00;102457.31;5298817;28;20016;-83
2022/12/27 08:04:37;;;;;;;24.23;8.80;;;;;;;2.51;100.00;102448.09;5300537;28;20021;-84
2022/12/27 08:07:15;;;;;;;20.15;8.45;;;;;;;2.64;100.00;102460.81;5300107;28;20120;-83
2022/12/27 08:09:47;;;;;;;18.75;8.27;;;;;;;2.73;100.00;102450.88;5298653;28;20111;-83
2022/12/27 08:12:18;;;;;;;22.95;9.07;;;;;;;2.75;100.00;102462.22;5299981;28;20047;-83
2022/12/27 08:14:49;;;;;;;19.38;7.97;;;;;;;2.72;100.00;102465.84;5285060;28;20040;-84
2022/12/27 08:17:25;;;;;;;23.05;8.13;;;;;;;2.82;100.00;102469.88;5299870;28;20079;-83
2022/12/27 08:19:57;;;;;;;18.83;7.97;;;;;;;2.80;100.00;102476.94;5298517;28;20567;-84
2022/12/27 08:22:28;;;;;;;17.52;7.85;;;;;;;2.79;100.00;102477.03;5300757;28;20017;-85
2022/12/27 08:25:00;;;;;;;23.88;7.15;;;;;;;2.82;100.00;102477.78;5297958;28;20028;-83
2022/12/27 08:27:31;;;;;;;18.13;8.15;;;;;;;2.86;100.00;102486.44;5306170;28;20229;-83
2022/12/27 08:30:02;;;;;;;17.02;7.35;;;;;;;2.90;100.00;102489.84;5304198;28;20028;-84
2022/12/27 08:32:34;;;;;;;19.60;7.43;;;;;;;2.90;100.00;102485.41;5303896;28;20043;-84
2022/12/27 08:35:05;;;;;;;15.23;7.38;;;;;;;2.87;100.00;102495.22;5308580;28;20056;-85
2022/12/27 08:37:37;;;;;;;19.90;7.45;;;;;;;2.87;100.00;102492.56;5305962;28;20040;-84
2022/12/27 08:40:08;;;;;;;17.17;6.70;;;;;;;2.91;100.00;102486.28;5304899;28;20036;-85
2022/12/27 08:42:40;;;;;;;19.92;7.07;;;;;;;2.91;100.00;102481.00;5300869;28;20033;-85
2022/12/27 08:45:11;;;;;;;19.13;7.30;;;;;;;2.92;100.00;102480.09;5305517;28;20448;-85
2022/12/27 08:47:43;;;;;;;21.98;7.20;;;;;;;2.98;100.00;102471.97;5303139;28;20423;-85
2022/12/27 08:50:14;;;;;;;12.15;6.13;;;;;;;2.97;100.00;102465.84;5304662;28;20159;-85
2022/12/27 08:52:45;;;;;;;11.00;6.50;;;;;;;3.01;100.00;102464.81;5305259;28;20017;-85
2022/12/27 08:55:17;;;;;;;13.68;6.50;;;;;;;3.02;100.00;102463.06;5302895;28;20028;-84
2022/12/27 08:57:48;;;;;;;17.20;7.93;;;;;;;3.08;100.00;102470.72;5300589;28;20059;-85
2022/12/27 09:00:19;;;;;;;13.52;7.32;;;;;;;3.12;100.00;102468.84;5298641;28;20025;-83
2022/12/27 09:02:51;;;;;;;11.70;6.07;;;;;;;3.17;100.00;102469.53;5283996;28;20017;-85
2022/12/27 09:05:24;;;;;;;13.15;5.82;;;;;;;3.26;100.00;102476.25;5311597;28;20469;-85
2022/12/27 09:07:56;;;;;;;14.35;6.28;;;;;;;3.31;100.00;102469.03;5305263;28;20059;-85
2022/12/27 09:10:28;;;;;;;11.82;6.05;;;;;;;3.34;100.00;102464.53;5301311;28;20029;-84
2022/12/27 09:12:59;;;;;;;18.48;6.85;;;;;;;3.41;100.00;102470.44;5309172;28;20039;-84
2022/12/27 09:15:30;;;;;;;12.80;5.60;;;;;;;3.40;100.00;102466.06;5313372;28;20094;-85
2022/12/27 09:18:02;;;;;;;10.23;5.57;;;;;;;3.45;100.00;102472.03;5312831;28;20051;-84
2022/12/27 09:20:33;;;;;;;14.13;5.22;;;;;;;3.44;100.00;102475.59;5311049;28;20035;-84
2022/12/27 09:23:05;;;;;;;12.63;5.43;;;;;;;3.53;100.00;102467.34;5294664;28;20024;-84
2022/12/27 09:25:36;;;;;;;12.73;5.22;;;;;;;3.55;100.00;102464.66;5312692;28;20016;-85
2022/12/27 09:28:09;;;;;;;11.00;4.88;;;;;;;3.63;100.00;102467.88;5313204;28;20028;-84
2022/12/27 09:30:43;;;;;;;10.57;4.82;;;;;;;3.70;100.00;102468.47;5313972;28;20036;-84
2022/12/27 09:33:14;;;;;;;16.65;5.53;;;;;;;3.77;100.00;102483.19;5311992;28;20021;-84
2022/12/27 09:35:45;;;;;;;12.20;5.00;;;;;;;3.88;100.00;102488.06;5311143;28;20415;-84
2022/12/27 09:38:17;;;;;;;13.90;5.47;;;;;;;3.90;100.00;102487.06;5311187;28;20107;-84
2022/12/27 09:40:53;;;;;;;9.63;4.85;;;;;;;4.01;100.00;102491.94;5311975;28;20025;-84
2022/12/27 09:43:39;;;;;;;10.80;4.65;;;;;;;4.18;100.00;102485.16;5312699;28;20147;-84
2022/12/27 09:46:16;;;;;;;11.52;5.30;;;;;;;4.18;100.00;102499.19;5312363;28;20020;-83
2022/12/27 09:48:49;;;;;;;13.70;5.38;;;;;;;4.22;100.00;102486.72;5314414;28;20456;-83
2022/12/27 09:51:31;;;;;;;13.40;4.57;;;;;;;4.33;100.00;102495.06;5321740;28;20035;-84
2022/12/27 09:54:08;;;;;;;9.55;4.50;;;;;;;4.41;100.00;102493.00;5335329;27;20032;-84
2022/12/27 09:56:40;;;;;;;12.63;4.95;;;;;;;4.41;100.00;102495.63;5317653;28;20040;-83
2022/12/27 09:59:18;;;;;;;11.13;4.53;;;;;;;4.56;100.00;102483.59;5328233;28;20039;-84
2022/12/27 10:01:49;;;;;;;11.20;4.18;;;;;;;4.50;100.00;102484.69;5324238;28;20028;-85
2022/12/27 10:04:20;;;;;;;14.23;4.30;;;;;;;4.58;100.00;102479.09;5323553;28;20021;-85
2022/12/27 10:07:06;;;;;;;12.10;4.88;;;;;;;4.77;100.00;102492.41;5323717;28;20017;-84
2022/12/27 10:09:43;;;;;;;11.00;3.92;;;;;;;4.82;100.00;102486.91;5323270;28;20364;-84
2022/12/27 10:12:26;;;;;;;10.80;3.97;;;;;;;4.96;100.00;102496.91;5319162;28;20410;-84
2022/12/27 10:15:28;;;;;;;10.68;4.25;;;;;;;5.15;100.00;102496.97;5316340;28;20048;-84
2022/12/27 10:18:26;;;;;;;12.23;4.28;;;;;;;5.21;100.00;102502.88;5305398;28;20025;-84
2022/12/27 10:21:18;;;;;;;10.88;4.40;;;;;;;5.33;100.00;102503.25;5310603;28;20017;-84
2022/12/27 10:24:01;;;;;;;11.15;4.38;;;;;;;5.40;100.00;102499.41;5290571;28;20027;-84
2022/12/27 10:26:32;;;;;;;11.07;4.10;;;;;;;5.40;100.00;102483.50;5288440;28;20044;-84
2022/12/27 10:29:18;;;;;;;11.30;4.65;;;;;;;5.47;100.00;102479.69;5307561;28;20491;-84
2022/12/27 10:31:50;;;;;;;10.10;3.83;;;;;;;5.48;100.00;102484.03;5306503;28;20025;-84
2022/12/27 10:34:25;;;;;;;10.95;4.47;;;;;;;5.60;100.00;102488.78;5309088;28;20813;-84
2022/12/27 10:36:57;;;;;;;10.63;4.05;;;;;;;5.71;100.00;102492.72;5307253;28;20046;-84
2022/12/27 10:39:33;;;;;;;8.23;3.67;;;;;;;5.79;100.00;102491.44;5309606;28;20064;-84
2022/12/27 10:42:10;;;;;;;10.87;4.40;;;;;;;6.00;100.00;102496.72;5291785;28;20024;-83
2022/12/27 10:44:42;;;;;;;9.60;3.72;;;;;;;6.03;100.00;102483.31;5313952;28;20562;-84
2022/12/27 10:47:15;;;;;;;8.75;3.72;;;;;;;6.28;100.00;102490.09;5311623;28;20072;-84
2022/12/27 10:50:02;;;;;;;10.73;3.72;;;;;;;6.47;100.00;102482.09;5310655;28;20466;-83
2022/12/27 10:52:34;;;;;;;;;;;;;;;6.69;100.00;102490.69;5312307;28;20029;-84
2022/12/27 10:55:31;;;;;;;8.63;3.80;;;;;;;7.01;100.00;102490.84;5311620;28;20360;-84
2022/12/27 10:58:32;;;;;;;6.15;3.10;;;;;;;7.05;100.00;102497.72;5324661;28;20067;-84
2022/12/27 11:01:04;;;;;;;8.32;3.40;;;;;;;7.09;100.00;102488.66;5327281;28;20024;-84
2022/12/27 11:03:35;;;;;;;11.52;3.78;;;;;;;7.06;100.00;102494.13;5317409;28;20099;-84
2022/12/27 11:06:21;;;;;;;9.63;4.13;;;;;;;7.09;100.00;102486.00;5311703;28;20538;-84
2022/12/27 11:08:53;;;;;;;7.78;3.13;;;;;;;6.98;100.00;102478.63;5321969;28;20024;-84
2022/12/27 11:11:28;;;;;;;11.68;3.58;;;;;;;7.05;100.00;102468.53;5330917;28;20046;-84
2022/12/27 11:14:16;;;;;;;9.27;3.80;;;;;;;7.29;100.00;102474.38;5330210;28;20100;-84
2022/12/27 11:16:50;;;;;;;8.13;3.10;;;;;;;7.24;100.00;102468.44;5322349;28;20449;-84
2022/12/27 11:19:26;;;;;;;7.63;3.17;;;;;;;7.23;100.00;102465.88;5316118;28;20092;-84
2022/12/27 11:22:04;;;;;;;7.63;3.20;;;;;;;7.37;100.00;102468.63;5317756;28;20460;-84
2022/12/27 11:24:36;;;;;;;8.43;3.60;;;;;;;7.46;100.00;102468.13;5318154;28;20020;-85
2022/12/27 11:27:27;;;;;;;10.90;3.20;;;;;;;7.60;100.00;102463.91;5322060;28;20023;-85
2022/12/27 11:29:58;;;;;;;12.07;3.40;;;;;;;7.47;100.00;102458.38;5306202;28;20086;-84
2022/12/27 11:32:30;;;;;;;8.57;3.05;;;;;;;7.48;100.00;102462.75;5323973;28;20021;-84
2022/12/27 11:35:02;;;;;;;8.80;3.53;;;;;;;7.35;100.00;102460.75;5325449;28;20055;-83
2022/12/27 11:37:38;;;;;;;9.10;2.92;;;;;;;7.34;100.00;102476.75;5324884;28;20043;-83
2022/12/27 11:40:19;;;;;;;;;;;;;;;7.34;100.00;102472.31;5323955;28;20024;-83
2022/12/27 11:42:55;;;;;;;7.80;3.08;;;;;;;6.94;100.00;102465.56;5318050;28;19913;-83
2022/12/27 11:45:39;;;;;;;7.15;3.35;;;;;;;6.96;100.00;102463.69;5311620;28;20039;-84
2022/12/27 11:48:19;;;;;;;6.82;3.00;;;;;;;6.99;100.00;102464.41;5309382;28;20040;-84
2022/12/27 11:51:20;;;;;;;7.65;2.90;;;;;;;7.05;100.00;102462.34;5307883;28;20076;-83
2022/12/27 11:54:29;;;;;;;6.00;2.90;;;;;;;6.90;100.00;102454.25;5308455;28;20017;-84
2022/12/27 11:57:29;;;;;;;11.85;3.28;;;;;;;6.95;100.00;102451.38;5304730;28;20165;-84
2022/12/27 12:00:18;;;;;;;6.95;2.83;;;;;;;6.95;100.00;102446.94;5307536;28;20044;-83
2022/12/27 12:03:26;;;;;;;8.73;3.03;;;;;;;6.90;100.00;102454.25;5306386;28;20045;-84
2022/12/27 12:05:57;;;;;;;;;;;;;;;7.12;100.00;102448.72;5306940;28;20099;-83
2022/12/27 12:08:53;;;;;;;7.07;2.67;;;;;;;6.96;100.00;102445.13;5287871;28;20048;-83
2022/12/27 12:12:02;;;;;;;6.85;3.00;;;;;;;6.93;100.00;102438.19;5306093;28;20036;-85
2022/12/27 12:14:57;;;;;;;10.45;3.10;;;;;;;6.80;100.00;102435.34;5304534;28;20098;-84
2022/12/27 12:17:48;;;;;;;7.32;2.85;;;;;;;6.74;100.00;102429.47;5287028;28;20037;-84
2022/12/27 12:20:32;;;;;;;9.95;2.65;;;;;;;6.75;100.00;102423.22;5307762;28;20016;-84
2022/12/27 12:23:18;;;;;;;6.35;3.20;;;;;;;6.78;100.00;102420.41;5308883;28;20032;-84
2022/12/27 12:25:57;;;;;;;6.93;2.78;;;;;;;6.87;100.00;102429.69;5325159;28;20013;-84
2022/12/27 12:29:13;;;;;;;9.02;3.13;;;;;;;6.93;100.00;102426.75;5323754;28;20074;-84
2022/12/27 12:32:25;;;;;;;8.15;2.92;;;;;;;7.18;100.00;102434.25;5253913;28;20033;-84
2022/12/27 12:35:20;;;;;;;7.30;2.92;;;;;;;7.41;100.00;102432.16;5313275;28;20408;-84
2022/12/27 12:38:01;;;;;;;6.75;2.85;;;;;;;7.41;100.00;102419.75;5306068;28;20024;-85
2022/12/27 12:40:48;;;;;;;9.82;2.80;;;;;;;7.38;100.00;102412.81;5305461;28;20082;-82
2022/12/27 12:43:44;;;;;;;6.15;2.72;;;;;;;7.23;100.00;102412.78;5306689;28;20044;-84
2022/12/27 12:46:36;;;;;;;5.95;2.70;;;;;;;7.14;100.00;102407.03;5305738;28;20028;-84
2022/12/27 12:49:46;;;;;;;5.95;3.00;;;;;;;7.07;100.00;102404.78;5304397;28;20016;-85
2022/12/27 12:52:20;;;;;;;5.30;2.70;;;;;;;7.03;100.00;102396.13;5304333;28;20037;-83
2022/12/27 12:54:54;;;;;;;11.38;2.97;;;;;;;6.91;100.00;102386.19;5304228;28;20040;-84
2022/12/27 12:57:26;;;;;;;9.50;3.63;;;;;;;6.86;100.00;102377.59;5305470;28;20048;-84
2022/12/27 13:00:41;;;;;;;5.22;2.60;;;;;;;6.88;100.00;102379.22;5305649;28;20060;-84
2022/12/27 13:03:37;;;;;;;7.88;2.80;;;;;;;6.85;100.00;102368.75;5277957;28;20044;-84
2022/12/27 13:06:17;;;;;;;7.65;2.50;;;;;;;6.90;100.00;102365.88;5304954;28;20032;-84
2022/12/27 13:09:33;;;;;;;7.97;2.97;;;;;;;7.13;100.00;102359.34;5305003;28;20112;-84
2022/12/27 13:12:22;;;;;;;10.00;3.35;;;;;;;7.16;100.00;102354.72;5304618;28;20032;-84
2022/12/27 13:15:12;;;;;;;6.18;2.75;;;;;;;7.11;100.00;102345.28;5304604;28;20051;-84
2022/12/27 13:18:09;;;;;;;5.10;2.65;;;;;;;7.06;100.00;102337.56;5305205;28;20016;-84
2022/12/27 13:20:59;;;;;;;10.30;2.83;;;;;;;7.10;100.00;102340.91;5304550;28;20512;-84
2022/12/27 13:23:44;;;;;;;8.00;2.92;;;;;;;7.02;100.00;102340.50;5304676;28;20033;-84
2022/12/27 13:26:38;;;;;;;8.98;2.72;;;;;;;6.93;100.00;102339.19;5303711;28;20024;-84
2022/12/27 13:29:37;;;;;;;11.88;3.03;;;;;;;6.78;100.00;102340.84;5284659;28;20037;-84
2022/12/27 13:32:30;;;;;;;8.20;2.75;;;;;;;6.72;100.00;102343.84;5285075;28;20033;-84
2022/12/27 13:35:23;;;;;;;7.25;2.80;;;;;;;6.79;100.00;102339.94;5290360;28;20021;-84
2022/12/27 13:38:03;;;;;;;8.65;3.08;;;;;;;6.74;100.00;102328.69;5290602;28;20044;-84
2022/12/27 13:40:57;;;;;;;8.52;2.90;;;;;;;6.96;100.00;102316.00;5284144;28;20068;-84